createdAt,value
2024-01-22T00:03:11.426Z,8.40
2024-01-22T00:08:13.744Z,7.57
2024-01-22T00:13:17.265Z,7.63
2024-01-22T00:18:19.598Z,7.63
2024-01-22T00:23:21.838Z,7.72
2024-01-22T00:28:23.958Z,7.45
2024-01-22T00:33:26.255Z,6.90
2024-01-22T00:38:28.588Z,6.30
2024-01-22T00:43:30.723Z,4.90
2024-01-22T00:48:33.063Z,4.47
2024-01-22T00:53:35.690Z,4.40
2024-01-22T00:58:38.577Z,3.90
2024-01-22T01:03:41.208Z,3.40
2024-01-22T01:08:43.621Z,3.35
2024-01-22T01:13:45.847Z,3.83
2024-01-22T01:18:48.277Z,3.63
2024-01-22T01:23:51.483Z,3.38
2024-01-22T01:28:54.872Z,3.88
2024-01-22T01:33:57.342Z,4.00
2024-01-22T01:38:59.710Z,4.20
2024-01-22T01:44:01.869Z,3.53
2024-01-22T01:49:04.320Z,5.32
2024-01-22T01:54:10.755Z,4.75
2024-01-22T01:59:13.519Z,4.97
2024-01-22T02:04:15.707Z,4.03
2024-01-22T02:09:17.977Z,3.78
2024-01-22T02:14:20.100Z,3.00
2024-01-22T02:19:22.540Z,4.10
2024-01-22T02:24:24.913Z,3.50
2024-01-22T02:29:27.223Z,2.88
2024-01-22T02:34:29.513Z,3.40
2024-01-22T02:39:31.742Z,3.00
2024-01-22T02:44:36.332Z,2.95
2024-01-22T02:49:38.750Z,3.40
2024-01-22T02:54:41.089Z,3.50
2024-01-22T02:59:43.734Z,3.00
2024-01-22T03:04:46.308Z,3.10
2024-01-22T03:09:48.594Z,2.67
2024-01-22T03:14:50.912Z,2.58
2024-01-22T03:19:53.312Z,2.78
2024-01-22T03:24:55.551Z,3.15
2024-01-22T03:29:57.821Z,3.53
2024-01-22T03:35:00.220Z,3.13
2024-01-22T03:40:02.346Z,3.38
2024-01-22T03:45:05.261Z,3.83
2024-01-22T03:50:08.292Z,3.63
2024-01-22T03:55:11.493Z,3.38
2024-01-22T04:00:14.334Z,3.35
2024-01-22T04:05:16.684Z,3.33
2024-01-22T04:10:18.914Z,3.65
2024-01-22T04:15:21.042Z,5.07
2024-01-22T04:20:23.321Z,6.32
2024-01-22T04:25:25.520Z,4.50
2024-01-22T04:30:27.704Z,6.90
2024-01-22T04:35:29.990Z,4.43
2024-01-22T04:40:32.216Z,4.00
2024-01-22T04:45:34.994Z,3.38
2024-01-22T04:50:37.250Z,3.33
2024-01-22T04:55:39.578Z,3.55
2024-01-22T05:00:41.958Z,2.90
2024-01-22T05:05:44.424Z,3.15
2024-01-22T05:10:47.002Z,6.07
2024-01-22T05:15:49.395Z,4.03
2024-01-22T05:20:51.612Z,3.47
2024-01-22T05:25:53.723Z,3.40
2024-01-22T05:30:55.828Z,3.33
2024-01-22T05:35:58.130Z,3.42
2024-01-22T05:41:00.537Z,3.67
2024-01-22T05:46:02.795Z,6.07
2024-01-22T05:51:05.176Z,3.60
2024-01-22T05:56:08.147Z,4.38
2024-01-22T06:01:10.787Z,3.28
2024-01-22T06:06:13.054Z,3.08
2024-01-22T06:11:18.667Z,3.42
2024-01-22T06:16:21.701Z,4.35
2024-01-22T06:21:24.203Z,3.92
2024-01-22T06:26:26.993Z,3.60
2024-01-22T06:31:30.121Z,4.05
2024-01-22T06:36:33.118Z,2.75
2024-01-22T06:41:36.450Z,3.63
2024-01-22T06:46:38.675Z,3.85
2024-01-22T06:51:46.098Z,4.32
2024-01-22T06:56:49.587Z,3.60
2024-01-22T07:01:53.811Z,3.92
2024-01-22T07:06:56.771Z,4.22
2024-01-22T07:11:59.607Z,3.78
2024-01-22T07:17:01.942Z,4.63
2024-01-22T07:22:05.492Z,7.10
2024-01-22T07:27:08.721Z,7.47
2024-01-22T07:32:10.917Z,4.32
2024-01-22T07:37:13.128Z,3.55
2024-01-22T07:42:15.441Z,4.55
2024-01-22T07:47:19.978Z,3.70
2024-01-22T07:52:23.813Z,3.50
2024-01-22T07:57:26.115Z,3.58
2024-01-22T08:02:28.393Z,3.28
2024-01-22T08:07:31.391Z,3.03
2024-01-22T08:12:33.702Z,3.05
2024-01-22T08:17:39.390Z,3.72
2024-01-22T08:22:44.972Z,3.35
2024-01-22T08:27:47.794Z,3.53
2024-01-22T08:32:50.767Z,3.30
2024-01-22T08:37:54.494Z,4.07
2024-01-22T08:42:57.087Z,4.22
2024-01-22T08:47:59.493Z,4.00
2024-01-22T08:53:02.108Z,5.75
2024-01-22T08:58:06.265Z,5.28
2024-01-22T09:03:08.696Z,5.55
2024-01-22T09:08:10.833Z,4.90
2024-01-22T09:13:13.014Z,8.00
2024-01-22T09:18:16.810Z,5.28
2024-01-22T09:23:19.448Z,3.92
2024-01-22T09:28:22.920Z,4.60
2024-01-22T09:33:25.636Z,4.43
2024-01-22T09:38:27.887Z,3.40
2024-01-22T09:43:30.304Z,3.88
2024-01-22T09:48:33.985Z,3.70
2024-01-22T09:53:39.162Z,5.38
2024-01-22T09:58:46.910Z,3.90
2024-01-22T10:03:50.717Z,4.57
2024-01-22T10:08:59.567Z,3.50
2024-01-22T10:14:02.050Z,3.50
2024-01-22T10:19:10.012Z,3.33
2024-01-22T10:24:12.683Z,4.53
2024-01-22T10:29:20.301Z,3.78
2024-01-22T10:34:26.345Z,2.78
2024-01-22T10:39:28.744Z,3.08
2024-01-22T10:44:31.198Z,2.60
2024-01-22T10:49:34.652Z,2.67
2024-01-22T10:54:38.643Z,3.15
2024-01-22T10:59:47.206Z,3.03
2024-01-22T11:05:03.428Z,2.63
2024-01-22T11:10:10.605Z,1.85
2024-01-22T11:15:12.886Z,2.28
2024-01-22T11:20:20.081Z,2.60
2024-01-22T11:25:22.291Z,3.00
2024-01-22T11:30:24.442Z,2.65
2024-01-22T11:35:38.596Z,2.38
2024-01-22T11:40:56.261Z,2.40
2024-01-22T11:46:00.527Z,1.23
2024-01-22T11:51:09.773Z,1.98
2024-01-22T11:56:14.466Z,1.70
2024-01-22T12:01:20.417Z,3.13
2024-01-22T12:06:23.271Z,2.10
2024-01-22T12:11:25.686Z,1.73
2024-01-22T12:16:27.857Z,2.05
2024-01-22T12:21:30.242Z,2.30
2024-01-22T12:26:32.414Z,2.05
2024-01-22T12:31:34.627Z,1.98
2024-01-22T12:36:38.015Z,2.30
2024-01-22T12:41:40.260Z,2.25
2024-01-22T12:46:43.703Z,2.80
2024-01-22T12:51:45.876Z,2.95
2024-01-22T12:56:48.511Z,2.10
2024-01-22T13:01:50.736Z,2.75
2024-01-22T13:06:53.109Z,1.98
2024-01-22T13:11:55.627Z,2.13
2024-01-22T13:17:00.052Z,1.98
2024-01-22T13:22:02.349Z,1.95
2024-01-22T13:27:06.544Z,3.03
2024-01-22T13:32:08.976Z,2.50
2024-01-22T13:37:11.665Z,2.40
2024-01-22T13:42:14.055Z,2.95
2024-01-22T13:47:21.904Z,1.65
2024-01-22T13:52:36.577Z,2.88
2024-01-22T13:57:39.105Z,2.50
2024-01-22T14:02:41.336Z,2.50
2024-01-22T14:07:43.510Z,2.38
2024-01-22T14:12:45.742Z,2.92
2024-01-22T14:17:47.975Z,2.72
2024-01-22T14:22:50.378Z,2.60
2024-01-22T14:27:53.234Z,2.00
2024-01-22T14:32:56.919Z,2.20
2024-01-22T14:37:59.551Z,2.42
2024-01-22T14:43:04.111Z,2.38
2024-01-22T14:48:06.804Z,1.55
2024-01-22T14:53:10.344Z,1.40
2024-01-22T14:58:12.475Z,2.20
2024-01-22T15:03:14.805Z,2.00
2024-01-22T15:08:17.054Z,3.10
2024-01-22T15:13:19.415Z,2.88
2024-01-22T15:18:21.758Z,2.30
2024-01-22T15:23:24.189Z,7.47
2024-01-22T15:28:27.414Z,7.78
2024-01-22T15:33:30.088Z,6.90
2024-01-22T15:38:32.327Z,15.95
2024-01-22T15:43:34.497Z,6.68
2024-01-22T15:48:36.842Z,5.18
2024-01-22T15:53:39.214Z,4.43
2024-01-22T15:58:41.538Z,8.50
2024-01-22T16:03:43.715Z,7.30
2024-01-22T16:08:46.054Z,7.65
2024-01-22T16:13:50.213Z,8.95
2024-01-22T16:18:55.625Z,11.40
2024-01-22T16:23:58.045Z,23.83
2024-01-22T16:29:00.657Z,14.45
2024-01-22T16:34:04.046Z,6.20
2024-01-22T16:39:06.497Z,6.88
2024-01-22T16:44:09.148Z,10.68
2024-01-22T16:49:12.076Z,11.80
2024-01-22T16:54:14.493Z,13.27
2024-01-22T16:59:17.226Z,11.77
2024-01-22T17:04:19.521Z,12.55
2024-01-22T17:09:22.210Z,13.60
2024-01-22T17:14:24.749Z,25.33
2024-01-22T17:19:27.131Z,19.08
2024-01-22T17:24:29.472Z,16.20
2024-01-22T17:29:31.821Z,13.88
2024-01-22T17:34:35.775Z,17.15
2024-01-22T17:39:38.125Z,19.90
2024-01-22T17:44:41.543Z,22.10
2024-01-22T17:49:43.711Z,24.05
2024-01-22T17:54:45.882Z,23.08
2024-01-22T17:59:48.601Z,16.05
2024-01-22T18:04:50.814Z,16.60
2024-01-22T18:09:53.368Z,15.00
2024-01-22T18:14:55.921Z,12.15
2024-01-22T18:19:58.083Z,15.82
2024-01-22T18:25:00.266Z,13.32
2024-01-22T18:30:02.609Z,13.95
2024-01-22T18:35:05.172Z,15.90
2024-01-22T18:40:10.237Z,17.73
2024-01-22T18:45:13.331Z,24.42
2024-01-22T18:50:16.075Z,17.95
2024-01-22T18:55:20.313Z,18.02
2024-01-22T19:00:22.613Z,20.23
2024-01-22T19:05:24.860Z,20.10
2024-01-22T19:10:27.127Z,18.73
2024-01-22T19:15:29.335Z,27.15
2024-01-22T19:20:32.037Z,22.20
2024-01-22T19:25:34.740Z,22.67
2024-01-22T19:30:36.965Z,25.60
2024-01-22T19:35:39.592Z,26.85
2024-01-22T19:40:41.836Z,25.05
2024-01-22T19:45:44.608Z,24.20
2024-01-22T19:50:48.029Z,23.77
2024-01-22T19:55:50.664Z,21.55
2024-01-22T20:00:53.008Z,24.88
2024-01-22T20:05:55.394Z,26.23
2024-01-22T20:10:57.768Z,23.75
2024-01-22T20:16:00.098Z,23.00
2024-01-22T20:21:02.266Z,29.73
2024-01-22T20:26:04.748Z,33.53
2024-01-22T20:31:06.921Z,42.25
2024-01-22T20:36:09.432Z,39.08
2024-01-22T20:41:15.168Z,39.25
2024-01-22T20:46:17.609Z,20.27
2024-01-22T20:51:19.859Z,14.30
2024-01-22T20:56:22.850Z,15.15
2024-01-22T21:01:25.256Z,14.95
2024-01-22T21:06:27.963Z,19.85
2024-01-22T21:11:30.884Z,15.13
2024-01-22T21:16:33.468Z,14.48
2024-01-22T21:21:35.857Z,17.60
2024-01-22T21:26:38.144Z,11.43
2024-01-22T21:31:40.576Z,14.23
2024-01-22T21:36:42.859Z,13.85
2024-01-22T21:41:45.171Z,17.45
2024-01-22T21:46:47.555Z,16.92
2024-01-22T21:51:49.698Z,18.67
2024-01-22T21:56:51.852Z,18.55
2024-01-22T22:01:54.449Z,19.17
2024-01-22T22:06:56.904Z,19.35
2024-01-22T22:12:00.353Z,19.70
2024-01-22T22:17:02.948Z,19.52
2024-01-22T22:22:05.301Z,19.85
2024-01-22T22:27:08.456Z,21.52
2024-01-22T22:32:10.639Z,23.85
2024-01-22T22:37:12.945Z,22.02
2024-01-22T22:42:15.169Z,18.48
2024-01-22T22:47:18.197Z,19.67
2024-01-22T22:52:20.330Z,19.10
2024-01-22T22:57:22.563Z,19.00
2024-01-22T23:02:27.284Z,16.70
2024-01-22T23:07:29.584Z,17.13
2024-01-22T23:12:31.873Z,16.80
2024-01-22T23:17:34.144Z,15.95
2024-01-22T23:22:36.942Z,15.00
2024-01-22T23:27:39.169Z,13.77
2024-01-22T23:32:41.338Z,12.48
2024-01-22T23:37:49.839Z,13.95
2024-01-22T23:42:52.043Z,13.55
2024-01-22T23:47:54.659Z,14.05
2024-01-22T23:52:56.932Z,13.43
2024-01-22T23:57:59.075Z,13.23
